sensor_id;sensor_type;location;lat;lon;timestamp;P1;durP1;ratioP1;P2;durP2;ratioP2
46158;SDS011;31888;44.512;26.104;2022-10-31T00:01:44;31.23;;;19.80;;
46158;SDS011;31888;44.512;26.104;2022-10-31T00:03:48;38.40;;;19.60;;
46158;SDS011;31888;44.512;26.104;2022-10-31T00:05:53;36.95;;;19.42;;
46158;SDS011;31888;44.512;26.104;2022-10-31T00:07:57;32.97;;;19.02;;
46158;SDS011;31888;44.512;26.104;2022-10-31T00:10:01;39.83;;;20.88;;
46158;SDS011;31888;44.512;26.104;2022-10-31T00:12:06;37.22;;;21.92;;
46158;SDS011;31888;44.512;26.104;2022-10-31T00:14:12;31.50;;;17.05;;
46158;SDS011;31888;44.512;26.104;2022-10-31T00:16:16;29.38;;;16.17;;
46158;SDS011;31888;44.512;26.104;2022-10-31T00:18:22;28.30;;;16.50;;
46158;SDS011;31888;44.512;26.104;2022-10-31T00:20:26;29.63;;;15.70;;
46158;SDS011;31888;44.512;26.104;2022-10-31T00:22:31;30.38;;;15.68;;
46158;SDS011;31888;44.512;26.104;2022-10-31T00:24:35;27.88;;;15.75;;
46158;SDS011;31888;44.512;26.104;2022-10-31T00:26:39;30.63;;;14.35;;
46158;SDS011;31888;44.512;26.104;2022-10-31T00:28:44;27.80;;;15.40;;
46158;SDS011;31888;44.512;26.104;2022-10-31T00:30:50;26.02;;;14.25;;
46158;SDS011;31888;44.512;26.104;2022-10-31T00:32:55;31.00;;;16.23;;
46158;SDS011;31888;44.512;26.104;2022-10-31T00:35:00;31.60;;;15.00;;
46158;SDS011;31888;44.512;26.104;2022-10-31T00:37:05;29.02;;;16.42;;
46158;SDS011;31888;44.512;26.104;2022-10-31T00:39:10;34.35;;;16.10;;
46158;SDS011;31888;44.512;26.104;2022-10-31T00:41:16;35.17;;;16.60;;
46158;SDS011;31888;44.512;26.104;2022-10-31T00:43:21;37.08;;;17.20;;
46158;SDS011;31888;44.512;26.104;2022-10-31T00:45:26;29.33;;;16.33;;
46158;SDS011;31888;44.512;26.104;2022-10-31T00:47:31;31.55;;;15.52;;
46158;SDS011;31888;44.512;26.104;2022-10-31T00:49:37;31.15;;;16.38;;
46158;SDS011;31888;44.512;26.104;2022-10-31T00:51:42;29.38;;;16.73;;
46158;SDS011;31888;44.512;26.104;2022-10-31T00:53:46;28.45;;;15.93;;
46158;SDS011;31888;44.512;26.104;2022-10-31T00:55:51;30.55;;;16.33;;
46158;SDS011;31888;44.512;26.104;2022-10-31T00:57:55;28.83;;;16.38;;
46158;SDS011;31888;44.512;26.104;2022-10-31T01:00:00;28.17;;;16.27;;
46158;SDS011;31888;44.512;26.104;2022-10-31T01:02:05;38.10;;;17.00;;
46158;SDS011;31888;44.512;26.104;2022-10-31T01:04:11;38.83;;;17.17;;
46158;SDS011;31888;44.512;26.104;2022-10-31T01:06:16;35.33;;;16.27;;
46158;SDS011;31888;44.512;26.104;2022-10-31T01:08:20;30.50;;;16.27;;
46158;SDS011;31888;44.512;26.104;2022-10-31T01:10:24;36.83;;;16.13;;
46158;SDS011;31888;44.512;26.104;2022-10-31T01:12:29;37.80;;;16.65;;
46158;SDS011;31888;44.512;26.104;2022-10-31T01:14:33;34.97;;;16.15;;
46158;SDS011;31888;44.512;26.104;2022-10-31T01:16:37;34.38;;;16.88;;
46158;SDS011;31888;44.512;26.104;2022-10-31T01:18:42;33.42;;;15.43;;
46158;SDS011;31888;44.512;26.104;2022-10-31T01:20:48;33.13;;;15.88;;
46158;SDS011;31888;44.512;26.104;2022-10-31T01:23:01;33.75;;;17.02;;
46158;SDS011;31888;44.512;26.104;2022-10-31T01:25:06;35.92;;;16.05;;
46158;SDS011;31888;44.512;26.104;2022-10-31T01:27:11;41.15;;;17.65;;
46158;SDS011;31888;44.512;26.104;2022-10-31T01:29:16;31.80;;;16.20;;
46158;SDS011;31888;44.512;26.104;2022-10-31T01:31:21;36.20;;;17.27;;
46158;SDS011;31888;44.512;26.104;2022-10-31T01:33:27;30.05;;;16.63;;
46158;SDS011;31888;44.512;26.104;2022-10-31T01:35:31;33.35;;;16.58;;
46158;SDS011;31888;44.512;26.104;2022-10-31T01:37:37;35.55;;;17.08;;
46158;SDS011;31888;44.512;26.104;2022-10-31T01:39:41;35.45;;;17.20;;
46158;SDS011;31888;44.512;26.104;2022-10-31T01:41:47;31.90;;;15.90;;
46158;SDS011;31888;44.512;26.104;2022-10-31T01:43:52;37.08;;;17.00;;
46158;SDS011;31888;44.512;26.104;2022-10-31T01:45:58;28.65;;;16.10;;
46158;SDS011;31888;44.512;26.104;2022-10-31T01:48:02;34.55;;;16.52;;
46158;SDS011;31888;44.512;26.104;2022-10-31T01:50:12;37.30;;;16.33;;
46158;SDS011;31888;44.512;26.104;2022-10-31T01:52:20;33.25;;;16.70;;
46158;SDS011;31888;44.512;26.104;2022-10-31T01:54:31;31.83;;;16.50;;
46158;SDS011;31888;44.512;26.104;2022-10-31T01:56:39;32.65;;;17.73;;
46158;SDS011;31888;44.512;26.104;2022-10-31T01:58:47;41.08;;;18.17;;
46158;SDS011;31888;44.512;26.104;2022-10-31T02:00:53;31.75;;;17.48;;
46158;SDS011;31888;44.512;26.104;2022-10-31T02:03:07;31.02;;;17.30;;
46158;SDS011;31888;44.512;26.104;2022-10-31T02:05:14;44.67;;;18.60;;
46158;SDS011;31888;44.512;26.104;2022-10-31T02:07:23;33.67;;;16.88;;
46158;SDS011;31888;44.512;26.104;2022-10-31T02:09:35;36.65;;;17.63;;
46158;SDS011;31888;44.512;26.104;2022-10-31T02:11:40;33.22;;;17.27;;
46158;SDS011;31888;44.512;26.104;2022-10-31T02:13:46;35.55;;;17.73;;
46158;SDS011;31888;44.512;26.104;2022-10-31T02:16:11;34.88;;;17.13;;
46158;SDS011;31888;44.512;26.104;2022-10-31T02:18:15;35.15;;;17.08;;
46158;SDS011;31888;44.512;26.104;2022-10-31T02:20:21;37.20;;;15.98;;
46158;SDS011;31888;44.512;26.104;2022-10-31T02:22:30;33.80;;;15.95;;
46158;SDS011;31888;44.512;26.104;2022-10-31T02:24:47;37.25;;;15.68;;
46158;SDS011;31888;44.512;26.104;2022-10-31T02:27:11;30.65;;;15.00;;
46158;SDS011;31888;44.512;26.104;2022-10-31T02:32:11;29.08;;;15.80;;
46158;SDS011;31888;44.512;26.104;2022-10-31T02:34:25;32.88;;;16.52;;
46158;SDS011;31888;44.512;26.104;2022-10-31T02:36:39;35.95;;;15.48;;
46158;SDS011;31888;44.512;26.104;2022-10-31T02:38:51;30.77;;;16.35;;
46158;SDS011;31888;44.512;26.104;2022-10-31T02:41:13;29.58;;;14.95;;
46158;SDS011;31888;44.512;26.104;2022-10-31T02:43:27;27.23;;;15.40;;
46158;SDS011;31888;44.512;26.104;2022-10-31T02:45:39;33.53;;;16.48;;
46158;SDS011;31888;44.512;26.104;2022-10-31T02:49:57;29.88;;;15.57;;
46158;SDS011;31888;44.512;26.104;2022-10-31T02:52:13;33.72;;;16.00;;
46158;SDS011;31888;44.512;26.104;2022-10-31T02:54:22;25.27;;;14.63;;
46158;SDS011;31888;44.512;26.104;2022-10-31T02:56:28;30.63;;;15.90;;
46158;SDS011;31888;44.512;26.104;2022-10-31T02:58:34;28.65;;;15.85;;
46158;SDS011;31888;44.512;26.104;2022-10-31T03:00:43;29.83;;;14.43;;
46158;SDS011;31888;44.512;26.104;2022-10-31T03:03:02;30.85;;;15.30;;
46158;SDS011;31888;44.512;26.104;2022-10-31T03:05:22;27.52;;;14.27;;
46158;SDS011;31888;44.512;26.104;2022-10-31T03:07:36;29.20;;;14.98;;
46158;SDS011;31888;44.512;26.104;2022-10-31T03:09:51;37.33;;;15.00;;
46158;SDS011;31888;44.512;26.104;2022-10-31T03:12:04;28.92;;;15.25;;
46158;SDS011;31888;44.512;26.104;2022-10-31T03:14:16;30.58;;;15.80;;
46158;SDS011;31888;44.512;26.104;2022-10-31T03:16:31;26.08;;;15.30;;
46158;SDS011;31888;44.512;26.104;2022-10-31T03:18:46;34.42;;;15.75;;
46158;SDS011;31888;44.512;26.104;2022-10-31T03:20:56;27.90;;;16.35;;
46158;SDS011;31888;44.512;26.104;2022-10-31T03:23:11;32.45;;;15.32;;
46158;SDS011;31888;44.512;26.104;2022-10-31T03:25:23;28.48;;;15.90;;
46158;SDS011;31888;44.512;26.104;2022-10-31T03:27:32;28.77;;;15.52;;
46158;SDS011;31888;44.512;26.104;2022-10-31T03:29:39;27.42;;;14.88;;
46158;SDS011;31888;44.512;26.104;2022-10-31T03:31:47;25.90;;;14.40;;
46158;SDS011;31888;44.512;26.104;2022-10-31T03:33:59;28.60;;;14.30;;
46158;SDS011;31888;44.512;26.104;2022-10-31T03:36:06;31.63;;;15.38;;
46158;SDS011;31888;44.512;26.104;2022-10-31T03:38:14;29.90;;;14.48;;
46158;SDS011;31888;44.512;26.104;2022-10-31T03:40:21;29.15;;;15.27;;
46158;SDS011;31888;44.512;26.104;2022-10-31T03:42:30;22.90;;;13.63;;
46158;SDS011;31888;44.512;26.104;2022-10-31T03:44:37;21.88;;;13.82;;
46158;SDS011;31888;44.512;26.104;2022-10-31T03:46:45;29.08;;;15.10;;
46158;SDS011;31888;44.512;26.104;2022-10-31T03:48:50;23.75;;;14.32;;
46158;SDS011;31888;44.512;26.104;2022-10-31T03:50:58;30.15;;;14.68;;
46158;SDS011;31888;44.512;26.104;2022-10-31T03:53:10;29.83;;;14.15;;
46158;SDS011;31888;44.512;26.104;2022-10-31T03:55:20;27.80;;;14.15;;
46158;SDS011;31888;44.512;26.104;2022-10-31T03:57:32;25.38;;;13.95;;
46158;SDS011;31888;44.512;26.104;2022-10-31T03:59:42;28.23;;;15.25;;
46158;SDS011;31888;44.512;26.104;2022-10-31T04:01:52;30.17;;;14.93;;
46158;SDS011;31888;44.512;26.104;2022-10-31T04:04:00;32.60;;;15.30;;
46158;SDS011;31888;44.512;26.104;2022-10-31T04:06:08;26.90;;;14.15;;
46158;SDS011;31888;44.512;26.104;2022-10-31T04:08:18;37.30;;;14.85;;
46158;SDS011;31888;44.512;26.104;2022-10-31T04:10:27;27.08;;;13.85;;
46158;SDS011;31888;44.512;26.104;2022-10-31T04:12:35;28.52;;;14.18;;
46158;SDS011;31888;44.512;26.104;2022-10-31T04:15:10;25.45;;;13.70;;
46158;SDS011;31888;44.512;26.104;2022-10-31T04:17:17;27.38;;;15.20;;
46158;SDS011;31888;44.512;26.104;2022-10-31T04:19:25;24.50;;;14.35;;
46158;SDS011;31888;44.512;26.104;2022-10-31T04:21:30;27.00;;;14.90;;
46158;SDS011;31888;44.512;26.104;2022-10-31T04:23:35;26.00;;;13.77;;
46158;SDS011;31888;44.512;26.104;2022-10-31T04:25:50;22.55;;;13.13;;
46158;SDS011;31888;44.512;26.104;2022-10-31T04:27:54;26.67;;;13.15;;
46158;SDS011;31888;44.512;26.104;2022-10-31T04:29:59;25.48;;;13.15;;
46158;SDS011;31888;44.512;26.104;2022-10-31T04:32:06;21.58;;;12.25;;
46158;SDS011;31888;44.512;26.104;2022-10-31T04:34:12;24.83;;;12.90;;
46158;SDS011;31888;44.512;26.104;2022-10-31T04:36:17;25.73;;;14.38;;
46158;SDS011;31888;44.512;26.104;2022-10-31T04:38:23;25.48;;;12.70;;
46158;SDS011;31888;44.512;26.104;2022-10-31T04:40:28;24.80;;;13.55;;
46158;SDS011;31888;44.512;26.104;2022-10-31T04:42:52;22.45;;;13.82;;
46158;SDS011;31888;44.512;26.104;2022-10-31T04:44:56;26.00;;;13.30;;
46158;SDS011;31888;44.512;26.104;2022-10-31T04:47:01;24.75;;;14.00;;
46158;SDS011;31888;44.512;26.104;2022-10-31T04:49:05;30.52;;;14.50;;
46158;SDS011;31888;44.512;26.104;2022-10-31T04:51:10;26.50;;;13.85;;
46158;SDS011;31888;44.512;26.104;2022-10-31T04:53:15;30.42;;;14.23;;
46158;SDS011;31888;44.512;26.104;2022-10-31T04:55:57;30.20;;;14.27;;
46158;SDS011;31888;44.512;26.104;2022-10-31T04:58:10;27.30;;;14.63;;
46158;SDS011;31888;44.512;26.104;2022-10-31T05:00:16;25.70;;;14.10;;
46158;SDS011;31888;44.512;26.104;2022-10-31T05:02:24;24.30;;;12.45;;
46158;SDS011;31888;44.512;26.104;2022-10-31T05:04:31;33.67;;;14.02;;
46158;SDS011;31888;44.512;26.104;2022-10-31T05:06:37;26.85;;;13.20;;
46158;SDS011;31888;44.512;26.104;2022-10-31T05:08:47;26.67;;;13.50;;
46158;SDS011;31888;44.512;26.104;2022-10-31T05:10:55;30.85;;;15.27;;
46158;SDS011;31888;44.512;26.104;2022-10-31T05:13:06;28.80;;;13.88;;
46158;SDS011;31888;44.512;26.104;2022-10-31T05:15:14;32.17;;;14.07;;
46158;SDS011;31888;44.512;26.104;2022-10-31T05:17:57;27.02;;;14.00;;
46158;SDS011;31888;44.512;26.104;2022-10-31T05:20:26;31.15;;;14.15;;
46158;SDS011;31888;44.512;26.104;2022-10-31T05:22:41;31.45;;;14.02;;
46158;SDS011;31888;44.512;26.104;2022-10-31T05:24:47;28.00;;;13.95;;
46158;SDS011;31888;44.512;26.104;2022-10-31T05:26:54;26.92;;;13.90;;
46158;SDS011;31888;44.512;26.104;2022-10-31T05:28:58;29.42;;;14.68;;
46158;SDS011;31888;44.512;26.104;2022-10-31T05:31:03;27.60;;;12.07;;
46158;SDS011;31888;44.512;26.104;2022-10-31T05:33:08;29.00;;;12.73;;
46158;SDS011;31888;44.512;26.104;2022-10-31T05:35:31;23.88;;;12.25;;
46158;SDS011;31888;44.512;26.104;2022-10-31T05:37:59;28.67;;;12.60;;
46158;SDS011;31888;44.512;26.104;2022-10-31T05:40:04;27.35;;;12.70;;
46158;SDS011;31888;44.512;26.104;2022-10-31T05:42:12;29.77;;;12.82;;
46158;SDS011;31888;44.512;26.104;2022-10-31T05:44:16;26.63;;;13.32;;
46158;SDS011;31888;44.512;26.104;2022-10-31T05:46:41;38.17;;;13.80;;
46158;SDS011;31888;44.512;26.104;2022-10-31T05:49:05;39.08;;;16.80;;
46158;SDS011;31888;44.512;26.104;2022-10-31T05:51:28;29.20;;;13.48;;
46158;SDS011;31888;44.512;26.104;2022-10-31T05:53:32;28.33;;;13.45;;
46158;SDS011;31888;44.512;26.104;2022-10-31T05:55:37;31.15;;;12.63;;
46158;SDS011;31888;44.512;26.104;2022-10-31T05:57:47;34.03;;;13.57;;
46158;SDS011;31888;44.512;26.104;2022-10-31T05:59:51;29.35;;;13.05;;
46158;SDS011;31888;44.512;26.104;2022-10-31T06:01:58;31.15;;;12.95;;
46158;SDS011;31888;44.512;26.104;2022-10-31T06:06:33;32.67;;;13.73;;
46158;SDS011;31888;44.512;26.104;2022-10-31T06:08:37;41.20;;;13.60;;
46158;SDS011;31888;44.512;26.104;2022-10-31T06:10:47;26.25;;;13.68;;
46158;SDS011;31888;44.512;26.104;2022-10-31T06:13:00;29.75;;;13.15;;
46158;SDS011;31888;44.512;26.104;2022-10-31T06:15:10;27.65;;;13.65;;
46158;SDS011;31888;44.512;26.104;2022-10-31T06:17:17;23.42;;;11.63;;
46158;SDS011;31888;44.512;26.104;2022-10-31T06:19:24;19.65;;;12.15;;
46158;SDS011;31888;44.512;26.104;2022-10-31T06:21:28;26.83;;;12.77;;
46158;SDS011;31888;44.512;26.104;2022-10-31T06:23:33;22.13;;;12.88;;
46158;SDS011;31888;44.512;26.104;2022-10-31T06:26:09;22.85;;;12.20;;
46158;SDS011;31888;44.512;26.104;2022-10-31T06:28:16;24.35;;;12.50;;
46158;SDS011;31888;44.512;26.104;2022-10-31T06:30:26;23.45;;;12.32;;
46158;SDS011;31888;44.512;26.104;2022-10-31T06:32:31;24.20;;;12.95;;
46158;SDS011;31888;44.512;26.104;2022-10-31T06:34:35;22.02;;;12.95;;
46158;SDS011;31888;44.512;26.104;2022-10-31T06:36:40;23.50;;;12.23;;
46158;SDS011;31888;44.512;26.104;2022-10-31T06:38:45;24.92;;;13.27;;
46158;SDS011;31888;44.512;26.104;2022-10-31T06:45:52;22.55;;;12.13;;
46158;SDS011;31888;44.512;26.104;2022-10-31T06:47:59;29.00;;;13.23;;
46158;SDS011;31888;44.512;26.104;2022-10-31T06:50:37;26.52;;;12.20;;
46158;SDS011;31888;44.512;26.104;2022-10-31T06:52:50;26.85;;;11.93;;
46158;SDS011;31888;44.512;26.104;2022-10-31T06:54:54;17.85;;;11.48;;
46158;SDS011;31888;44.512;26.104;2022-10-31T06:56:59;22.95;;;11.13;;
46158;SDS011;31888;44.512;26.104;2022-10-31T06:59:05;27.67;;;12.52;;
46158;SDS011;31888;44.512;26.104;2022-10-31T07:01:35;29.33;;;12.20;;
46158;SDS011;31888;44.512;26.104;2022-10-31T07:03:40;20.70;;;11.40;;
46158;SDS011;31888;44.512;26.104;2022-10-31T07:05:45;23.98;;;11.20;;
46158;SDS011;31888;44.512;26.104;2022-10-31T07:07:51;26.00;;;11.95;;
46158;SDS011;31888;44.512;26.104;2022-10-31T07:09:57;29.75;;;12.82;;
46158;SDS011;31888;44.512;26.104;2022-10-31T07:12:24;32.58;;;12.75;;
46158;SDS011;31888;44.512;26.104;2022-10-31T07:14:34;31.75;;;11.77;;
46158;SDS011;31888;44.512;26.104;2022-10-31T07:16:40;27.60;;;12.23;;
46158;SDS011;31888;44.512;26.104;2022-10-31T07:18:48;23.98;;;11.07;;
46158;SDS011;31888;44.512;26.104;2022-10-31T07:20:52;31.08;;;11.52;;
46158;SDS011;31888;44.512;26.104;2022-10-31T07:22:57;28.48;;;11.15;;
46158;SDS011;31888;44.512;26.104;2022-10-31T07:25:05;25.17;;;11.45;;
46158;SDS011;31888;44.512;26.104;2022-10-31T07:27:28;24.05;;;11.20;;
46158;SDS011;31888;44.512;26.104;2022-10-31T07:29:34;23.17;;;11.70;;
46158;SDS011;31888;44.512;26.104;2022-10-31T07:31:40;22.50;;;11.40;;
46158;SDS011;31888;44.512;26.104;2022-10-31T07:33:53;25.42;;;11.02;;
46158;SDS011;31888;44.512;26.104;2022-10-31T07:36:04;20.98;;;10.93;;
46158;SDS011;31888;44.512;26.104;2022-10-31T07:38:09;21.35;;;10.82;;
46158;SDS011;31888;44.512;26.104;2022-10-31T07:40:15;24.95;;;10.57;;
46158;SDS011;31888;44.512;26.104;2022-10-31T07:42:21;22.83;;;10.93;;
46158;SDS011;31888;44.512;26.104;2022-10-31T07:44:33;23.45;;;11.30;;
46158;SDS011;31888;44.512;26.104;2022-10-31T07:47:17;21.85;;;10.73;;
46158;SDS011;31888;44.512;26.104;2022-10-31T07:49:40;18.33;;;10.77;;
46158;SDS011;31888;44.512;26.104;2022-10-31T07:52:04;21.20;;;11.38;;
46158;SDS011;31888;44.512;26.104;2022-10-31T07:54:08;17.92;;;10.98;;
46158;SDS011;31888;44.512;26.104;2022-10-31T07:56:13;19.15;;;10.63;;
46158;SDS011;31888;44.512;26.104;2022-10-31T07:58:18;22.38;;;10.65;;
46158;SDS011;31888;44.512;26.104;2022-10-31T08:00:24;17.02;;;10.55;;
46158;SDS011;31888;44.512;26.104;2022-10-31T08:02:28;18.85;;;11.50;;
46158;SDS011;31888;44.512;26.104;2022-10-31T08:04:55;21.15;;;11.25;;
46158;SDS011;31888;44.512;26.104;2022-10-31T08:07:21;24.55;;;13.63;;
46158;SDS011;31888;44.512;26.104;2022-10-31T08:09:33;31.45;;;14.38;;
46158;SDS011;31888;44.512;26.104;2022-10-31T08:11:46;20.85;;;12.23;;
46158;SDS011;31888;44.512;26.104;2022-10-31T08:13:51;25.02;;;14.60;;
46158;SDS011;31888;44.512;26.104;2022-10-31T08:15:58;26.67;;;12.70;;
46158;SDS011;31888;44.512;26.104;2022-10-31T08:18:11;26.13;;;12.70;;
46158;SDS011;31888;44.512;26.104;2022-10-31T08:20:17;25.15;;;12.80;;
46158;SDS011;31888;44.512;26.104;2022-10-31T08:22:22;22.48;;;11.60;;
46158;SDS011;31888;44.512;26.104;2022-10-31T08:24:26;24.38;;;11.38;;
46158;SDS011;31888;44.512;26.104;2022-10-31T08:26:32;18.95;;;10.02;;
46158;SDS011;31888;44.512;26.104;2022-10-31T08:28:38;18.65;;;9.38;;
46158;SDS011;31888;44.512;26.104;2022-10-31T08:30:44;20.67;;;9.18;;
46158;SDS011;31888;44.512;26.104;2022-10-31T08:33:18;18.48;;;10.82;;
46158;SDS011;31888;44.512;26.104;2022-10-31T08:35:42;17.60;;;10.20;;
46158;SDS011;31888;44.512;26.104;2022-10-31T08:38:22;17.33;;;9.82;;
46158;SDS011;31888;44.512;26.104;2022-10-31T08:40:28;16.30;;;8.32;;
46158;SDS011;31888;44.512;26.104;2022-10-31T08:42:37;26.35;;;12.38;;
46158;SDS011;31888;44.512;26.104;2022-10-31T08:44:42;21.70;;;12.02;;
46158;SDS011;31888;44.512;26.104;2022-10-31T08:46:47;29.92;;;13.15;;
46158;SDS011;31888;44.512;26.104;2022-10-31T08:48:53;32.15;;;14.35;;
46158;SDS011;31888;44.512;26.104;2022-10-31T08:50:58;21.42;;;11.43;;
46158;SDS011;31888;44.512;26.104;2022-10-31T08:53:04;27.30;;;12.38;;
46158;SDS011;31888;44.512;26.104;2022-10-31T08:55:10;24.70;;;12.43;;
46158;SDS011;31888;44.512;26.104;2022-10-31T08:57:20;32.22;;;13.68;;
46158;SDS011;31888;44.512;26.104;2022-10-31T08:59:26;22.92;;;10.32;;
46158;SDS011;31888;44.512;26.104;2022-10-31T09:01:49;17.27;;;8.05;;
46158;SDS011;31888;44.512;26.104;2022-10-31T09:03:55;25.65;;;8.90;;
46158;SDS011;31888;44.512;26.104;2022-10-31T09:06:01;21.63;;;8.63;;
46158;SDS011;31888;44.512;26.104;2022-10-31T09:08:12;20.23;;;8.25;;
46158;SDS011;31888;44.512;26.104;2022-10-31T09:10:20;22.10;;;8.70;;
46158;SDS011;31888;44.512;26.104;2022-10-31T09:12:24;26.92;;;9.70;;
46158;SDS011;31888;44.512;26.104;2022-10-31T09:14:29;29.50;;;12.20;;
46158;SDS011;31888;44.512;26.104;2022-10-31T09:16:57;29.33;;;13.38;;
46158;SDS011;31888;44.512;26.104;2022-10-31T09:19:19;26.40;;;13.60;;
46158;SDS011;31888;44.512;26.104;2022-10-31T09:21:24;31.77;;;12.65;;
46158;SDS011;31888;44.512;26.104;2022-10-31T09:23:29;19.98;;;10.23;;
46158;SDS011;31888;44.512;26.104;2022-10-31T09:25:35;24.58;;;9.07;;
46158;SDS011;31888;44.512;26.104;2022-10-31T09:28:06;24.83;;;9.80;;
46158;SDS011;31888;44.512;26.104;2022-10-31T09:30:13;16.30;;;8.77;;
46158;SDS011;31888;44.512;26.104;2022-10-31T09:32:18;19.70;;;8.77;;
46158;SDS011;31888;44.512;26.104;2022-10-31T09:34:24;21.52;;;9.05;;
46158;SDS011;31888;44.512;26.104;2022-10-31T09:36:43;23.52;;;8.23;;
46158;SDS011;31888;44.512;26.104;2022-10-31T09:38:53;20.85;;;8.75;;
46158;SDS011;31888;44.512;26.104;2022-10-31T09:41:01;18.27;;;9.20;;
46158;SDS011;31888;44.512;26.104;2022-10-31T09:43:20;25.90;;;9.93;;
46158;SDS011;31888;44.512;26.104;2022-10-31T09:45:33;26.83;;;10.20;;
46158;SDS011;31888;44.512;26.104;2022-10-31T09:48:01;22.63;;;10.43;;
46158;SDS011;31888;44.512;26.104;2022-10-31T09:50:37;23.73;;;10.15;;
46158;SDS011;31888;44.512;26.104;2022-10-31T09:53:10;19.02;;;11.23;;
46158;SDS011;31888;44.512;26.104;2022-10-31T09:55:24;30.63;;;11.45;;
46158;SDS011;31888;44.512;26.104;2022-10-31T09:57:35;29.23;;;12.70;;
46158;SDS011;31888;44.512;26.104;2022-10-31T09:59:40;25.27;;;11.60;;
46158;SDS011;31888;44.512;26.104;2022-10-31T10:01:48;26.02;;;10.80;;
46158;SDS011;31888;44.512;26.104;2022-10-31T10:04:01;23.95;;;10.68;;
46158;SDS011;31888;44.512;26.104;2022-10-31T10:06:32;24.85;;;10.57;;
46158;SDS011;31888;44.512;26.104;2022-10-31T10:09:02;28.02;;;12.00;;
46158;SDS011;31888;44.512;26.104;2022-10-31T10:11:31;22.38;;;10.88;;
46158;SDS011;31888;44.512;26.104;2022-10-31T10:13:54;33.55;;;11.85;;
46158;SDS011;31888;44.512;26.104;2022-10-31T10:16:16;25.25;;;11.98;;
46158;SDS011;31888;44.512;26.104;2022-10-31T10:18:41;24.65;;;10.35;;
46158;SDS011;31888;44.512;26.104;2022-10-31T10:20:58;19.58;;;9.68;;
46158;SDS011;31888;44.512;26.104;2022-10-31T10:23:27;27.25;;;10.45;;
46158;SDS011;31888;44.512;26.104;2022-10-31T10:25:39;25.38;;;10.63;;
46158;SDS011;31888;44.512;26.104;2022-10-31T10:27:49;23.77;;;10.10;;
46158;SDS011;31888;44.512;26.104;2022-10-31T10:30:01;23.63;;;9.57;;
46158;SDS011;31888;44.512;26.104;2022-10-31T10:32:09;18.38;;;9.80;;
46158;SDS011;31888;44.512;26.104;2022-10-31T10:34:22;20.77;;;11.70;;
46158;SDS011;31888;44.512;26.104;2022-10-31T10:36:32;36.05;;;11.32;;
46158;SDS011;31888;44.512;26.104;2022-10-31T10:40:50;19.60;;;10.50;;
46158;SDS011;31888;44.512;26.104;2022-10-31T10:42:59;22.73;;;11.73;;
46158;SDS011;31888;44.512;26.104;2022-10-31T10:45:25;17.33;;;10.38;;
46158;SDS011;31888;44.512;26.104;2022-10-31T10:47:47;18.40;;;10.30;;
46158;SDS011;31888;44.512;26.104;2022-10-31T10:49:59;27.92;;;12.50;;
46158;SDS011;31888;44.512;26.104;2022-10-31T10:52:08;25.80;;;12.38;;
46158;SDS011;31888;44.512;26.104;2022-10-31T10:54:53;24.77;;;13.50;;
46158;SDS011;31888;44.512;26.104;2022-10-31T10:57:09;28.30;;;12.82;;
46158;SDS011;31888;44.512;26.104;2022-10-31T10:59:21;30.98;;;13.02;;
46158;SDS011;31888;44.512;26.104;2022-10-31T11:01:26;23.02;;;11.52;;
46158;SDS011;31888;44.512;26.104;2022-10-31T11:03:30;30.98;;;12.73;;
46158;SDS011;31888;44.512;26.104;2022-10-31T11:05:40;26.05;;;13.73;;
46158;SDS011;31888;44.512;26.104;2022-10-31T11:07:48;27.52;;;13.05;;
46158;SDS011;31888;44.512;26.104;2022-10-31T11:10:03;27.98;;;12.05;;
46158;SDS011;31888;44.512;26.104;2022-10-31T11:12:19;22.00;;;12.20;;
46158;SDS011;31888;44.512;26.104;2022-10-31T11:14:26;33.35;;;11.85;;
46158;SDS011;31888;44.512;26.104;2022-10-31T11:16:32;19.75;;;10.80;;
46158;SDS011;31888;44.512;26.104;2022-10-31T11:18:43;20.15;;;11.18;;
46158;SDS011;31888;44.512;26.104;2022-10-31T11:20:51;21.00;;;11.05;;
46158;SDS011;31888;44.512;26.104;2022-10-31T11:23:04;25.45;;;11.88;;
46158;SDS011;31888;44.512;26.104;2022-10-31T11:25:23;18.90;;;9.48;;
46158;SDS011;31888;44.512;26.104;2022-10-31T11:27:29;15.57;;;10.23;;
46158;SDS011;31888;44.512;26.104;2022-10-31T11:29:34;21.58;;;11.00;;
46158;SDS011;31888;44.512;26.104;2022-10-31T11:31:39;19.23;;;10.35;;
46158;SDS011;31888;44.512;26.104;2022-10-31T11:33:45;18.65;;;9.38;;
46158;SDS011;31888;44.512;26.104;2022-10-31T11:35:51;19.95;;;9.90;;
46158;SDS011;31888;44.512;26.104;2022-10-31T11:37:59;18.52;;;9.20;;
46158;SDS011;31888;44.512;26.104;2022-10-31T11:40:14;18.17;;;9.90;;
46158;SDS011;31888;44.512;26.104;2022-10-31T11:42:23;17.10;;;9.32;;
46158;SDS011;31888;44.512;26.104;2022-10-31T11:44:30;16.17;;;9.75;;
46158;SDS011;31888;44.512;26.104;2022-10-31T11:46:37;21.50;;;9.57;;
46158;SDS011;31888;44.512;26.104;2022-10-31T11:48:46;21.52;;;10.20;;
46158;SDS011;31888;44.512;26.104;2022-10-31T11:50:51;20.23;;;10.93;;
46158;SDS011;31888;44.512;26.104;2022-10-31T11:52:58;24.45;;;10.73;;
46158;SDS011;31888;44.512;26.104;2022-10-31T11:55:14;23.50;;;10.30;;
46158;SDS011;31888;44.512;26.104;2022-10-31T11:59:50;20.95;;;9.85;;
46158;SDS011;31888;44.512;26.104;2022-10-31T12:01:56;24.80;;;10.63;;
46158;SDS011;31888;44.512;26.104;2022-10-31T12:04:06;21.27;;;10.10;;
46158;SDS011;31888;44.512;26.104;2022-10-31T12:06:12;19.67;;;10.38;;
46158;SDS011;31888;44.512;26.104;2022-10-31T12:08:21;16.83;;;10.65;;
46158;SDS011;31888;44.512;26.104;2022-10-31T12:10:27;19.88;;;10.55;;
46158;SDS011;31888;44.512;26.104;2022-10-31T12:12:46;18.25;;;10.50;;
46158;SDS011;31888;44.512;26.104;2022-10-31T12:15:09;19.45;;;9.35;;
46158;SDS011;31888;44.512;26.104;2022-10-31T12:17:44;22.25;;;10.13;;
46158;SDS011;31888;44.512;26.104;2022-10-31T12:20:05;24.38;;;8.52;;
46158;SDS011;31888;44.512;26.104;2022-10-31T12:22:23;24.85;;;9.55;;
46158;SDS011;31888;44.512;26.104;2022-10-31T12:24:38;25.35;;;9.73;;
46158;SDS011;31888;44.512;26.104;2022-10-31T12:27:07;17.08;;;9.18;;
46158;SDS011;31888;44.512;26.104;2022-10-31T12:31:50;20.00;;;9.70;;
46158;SDS011;31888;44.512;26.104;2022-10-31T12:34:09;20.70;;;10.13;;
46158;SDS011;31888;44.512;26.104;2022-10-31T12:36:41;17.90;;;9.55;;
46158;SDS011;31888;44.512;26.104;2022-10-31T12:38:57;17.50;;;9.77;;
46158;SDS011;31888;44.512;26.104;2022-10-31T12:41:14;17.70;;;9.68;;
46158;SDS011;31888;44.512;26.104;2022-10-31T12:43:33;18.70;;;9.25;;
46158;SDS011;31888;44.512;26.104;2022-10-31T12:45:51;14.82;;;8.70;;
46158;SDS011;31888;44.512;26.104;2022-10-31T12:48:00;15.32;;;8.60;;
46158;SDS011;31888;44.512;26.104;2022-10-31T12:50:22;18.52;;;9.38;;
46158;SDS011;31888;44.512;26.104;2022-10-31T12:52:41;25.60;;;10.80;;
46158;SDS011;31888;44.512;26.104;2022-10-31T12:55:01;16.35;;;8.95;;
46158;SDS011;31888;44.512;26.104;2022-10-31T12:57:16;17.50;;;9.65;;